Time;durP1;ratioP1;P1;durP2;ratioP2;P2;SDS_P1;SDS_P2;PMS_P1;PMS_P2;Temp;Humidity;BMP_temperature;BMP_pressure;BME280_temperature;BME280_humidity;BME280_pressure;Samples;Min_cycle;Max_cycle;Signal;HPM_P1;HPM_P2
2021/06/17 00:01:06;;;;;;;7.20;4.97;;;;;;;;;;5047086;28;20071;-64
2021/06/17 00:03:31;;;;;;;6.80;4.97;;;;;;;;;;5048515;28;20424;-63
2021/06/17 00:05:56;;;;;;;8.23;5.30;;;;;;;;;;5047299;28;20501;-63
2021/06/17 00:08:22;;;;;;;7.78;5.40;;;;;;;;;;5047993;28;20494;-63
2021/06/17 00:10:48;;;;;;;9.70;5.38;;;;;;;;;;5046857;28;20021;-64
2021/06/17 00:13:17;;;;;;;7.82;5.30;;;;;;;;;;5052647;28;20056;-64
2021/06/17 00:15:44;;;;;;;7.88;5.38;;;;;;;;;;5047714;28;20036;-64
2021/06/17 00:18:09;;;;;;;9.55;5.43;;;;;;;;;;5046718;28;20057;-63
2021/06/17 00:20:35;;;;;;;8.30;5.43;;;;;;;;;;5046483;28;20049;-64
2021/06/17 00:23:01;;;;;;;7.70;5.50;;;;;;;;;;5046781;28;20021;-64
2021/06/17 00:25:26;;;;;;;9.15;5.65;;;;;;;;;;5047001;28;20031;-64
2021/06/17 00:27:51;;;;;;;8.98;5.63;;;;;;;;;;5047910;28;20016;-63
2021/06/17 00:30:17;;;;;;;8.57;5.90;;;;;;;;;;5046492;28;20099;-63
2021/06/17 00:32:43;;;;;;;7.22;5.38;;;;;;;;;;5045352;28;20052;-63
2021/06/17 00:35:09;;;;;;;6.75;5.18;;;;;;;;;;5043656;28;20021;-64
2021/06/17 00:37:34;;;;;;;9.32;5.53;;;;;;;;;;5046961;28;20047;-64
2021/06/17 00:40:00;;;;;;;9.43;5.60;;;;;;;;;;5047117;28;20100;-63
2021/06/17 00:42:25;;;;;;;9.52;5.85;;;;;;;;;;5047126;28;20031;-64
2021/06/17 00:44:51;;;;;;;8.73;5.72;;;;;;;;;;5049632;28;20048;-65
2021/06/17 00:47:16;;;;;;;8.90;5.82;;;;;;;;;;5046245;28;20036;-64
2021/06/17 00:49:41;;;;;;;8.45;5.38;;;;;;;;;;5045769;28;20128;-63
2021/06/17 00:52:07;;;;;;;8.50;5.55;;;;;;;;;;5046451;28;20033;-64
2021/06/17 00:54:32;;;;;;;7.97;5.70;;;;;;;;;;5047149;28;20136;-64
2021/06/17 00:56:58;;;;;;;6.50;5.22;;;;;;;;;;5048321;28;20041;-64
2021/06/17 00:59:23;;;;;;;8.93;5.00;;;;;;;;;;5050645;28;20032;-64
2021/06/17 01:01:49;;;;;;;6.10;5.17;;;;;;;;;;5050778;28;20024;-64
2021/06/17 01:04:14;;;;;;;6.63;4.85;;;;;;;;;;5049749;28;20282;-64
2021/06/17 01:06:39;;;;;;;9.13;5.23;;;;;;;;;;5050383;28;20029;-65
2021/06/17 01:09:07;;;;;;;6.75;4.97;;;;;;;;;;5049577;28;20279;-63
2021/06/17 01:11:39;;;;;;;7.43;5.00;;;;;;;;;;5050583;28;20021;-63
2021/06/17 01:14:23;;;;;;;8.48;4.80;;;;;;;;;;5052285;28;20032;-63
2021/06/17 01:16:55;;;;;;;7.35;4.63;;;;;;;;;;5050545;28;20031;-64
2021/06/17 01:19:24;;;;;;;7.85;5.38;;;;;;;;;;5045748;28;20370;-63
2021/06/17 01:21:58;;;;;;;7.80;5.25;;;;;;;;;;5049894;28;20028;-63
2021/06/17 01:24:38;;;;;;;9.18;6.15;;;;;;;;;;5049395;28;20029;-63
2021/06/17 01:27:03;;;;;;;7.97;5.50;;;;;;;;;;5049807;28;20037;-64
2021/06/17 01:29:29;;;;;;;7.93;5.90;;;;;;;;;;5049303;28;20017;-64
2021/06/17 01:31:54;;;;;;;8.07;5.63;;;;;;;;;;5049629;28;20333;-63
2021/06/17 01:34:21;;;;;;;7.85;5.47;;;;;;;;;;5048704;28;20417;-64
2021/06/17 01:36:48;;;;;;;6.05;4.90;;;;;;;;;;5050461;28;20120;-63
2021/06/17 01:39:15;;;;;;;7.13;4.97;;;;;;;;;;5049866;28;20414;-64
2021/06/17 01:41:44;;;;;;;7.35;5.43;;;;;;;;;;5049668;28;20025;-64
2021/06/17 01:44:09;;;;;;;7.43;5.57;;;;;;;;;;5049134;28;20032;-64
2021/06/17 01:46:35;;;;;;;7.95;5.22;;;;;;;;;;5049935;28;20548;-63
2021/06/17 01:49:01;;;;;;;8.18;5.60;;;;;;;;;;5050341;28;20029;-64
2021/06/17 01:51:27;;;;;;;8.60;5.70;;;;;;;;;;5049468;28;20106;-64
2021/06/17 01:53:53;;;;;;;7.82;5.45;;;;;;;;;;5049230;28;20032;-64
2021/06/17 01:56:22;;;;;;;7.40;4.78;;;;;;;;;;5049767;28;20024;-63
2021/06/17 01:58:49;;;;;;;6.97;5.50;;;;;;;;;;5045320;28;20021;-64
2021/06/17 02:01:15;;;;;;;7.93;5.40;;;;;;;;;;5048741;28;20025;-64
2021/06/17 02:03:43;;;;;;;6.32;5.35;;;;;;;;;;5048881;28;20396;-63
2021/06/17 02:06:08;;;;;;;8.05;5.95;;;;;;;;;;5048877;28;20028;-63
2021/06/17 02:08:33;;;;;;;8.50;5.65;;;;;;;;;;5048860;28;20468;-63
2021/06/17 02:10:59;;;;;;;7.72;5.88;;;;;;;;;;5048682;28;20053;-63
2021/06/17 02:13:24;;;;;;;8.32;5.82;;;;;;;;;;5048514;28;20045;-62
2021/06/17 02:15:50;;;;;;;6.57;5.15;;;;;;;;;;5049535;28;20456;-63
2021/06/17 02:18:20;;;;;;;7.20;5.35;;;;;;;;;;5049826;28;20020;-63
2021/06/17 02:20:45;;;;;;;8.15;5.68;;;;;;;;;;5046542;28;20128;-64
2021/06/17 02:23:13;;;;;;;6.28;5.07;;;;;;;;;;5048237;28;20098;-63
2021/06/17 02:25:39;;;;;;;6.35;4.88;;;;;;;;;;5049431;28;20123;-63
2021/06/17 02:28:10;;;;;;;10.20;4.97;;;;;;;;;;5048004;28;20035;-63
2021/06/17 02:30:36;;;;;;;7.70;5.13;;;;;;;;;;5046673;28;20044;-63
2021/06/17 02:33:04;;;;;;;5.80;4.93;;;;;;;;;;5048578;28;20083;-63
2021/06/17 02:35:30;;;;;;;8.52;5.43;;;;;;;;;;5048370;28;20382;-64
2021/06/17 02:37:57;;;;;;;7.47;5.30;;;;;;;;;;5049837;28;20025;-63
2021/06/17 02:40:24;;;;;;;7.75;5.10;;;;;;;;;;5048889;28;20052;-63
2021/06/17 02:42:50;;;;;;;9.40;5.25;;;;;;;;;;5052736;28;20066;-64
2021/06/17 02:45:16;;;;;;;6.72;4.85;;;;;;;;;;5048711;28;20100;-63
2021/06/17 02:47:41;;;;;;;7.13;4.82;;;;;;;;;;5048564;28;20107;-64
2021/06/17 02:50:07;;;;;;;7.88;4.90;;;;;;;;;;5048875;28;20024;-64
2021/06/17 02:52:32;;;;;;;6.90;5.00;;;;;;;;;;5047966;28;20032;-63
2021/06/17 02:54:57;;;;;;;6.83;4.77;;;;;;;;;;5046839;28;20025;-63
2021/06/17 02:57:24;;;;;;;7.80;4.93;;;;;;;;;;5047339;28;20337;-62
2021/06/17 02:59:53;;;;;;;6.97;5.15;;;;;;;;;;5048844;28;20365;-63
2021/06/17 03:02:19;;;;;;;7.68;4.68;;;;;;;;;;5048109;28;20515;-63
2021/06/17 03:04:52;;;;;;;6.47;4.80;;;;;;;;;;5047674;28;20499;-64
2021/06/17 03:07:20;;;;;;;7.45;5.15;;;;;;;;;;5047561;28;20074;-63
2021/06/17 03:09:46;;;;;;;5.35;4.65;;;;;;;;;;5048577;28;20017;-63
2021/06/17 03:12:13;;;;;;;5.97;5.03;;;;;;;;;;5048371;28;20076;-63
2021/06/17 03:14:40;;;;;;;6.15;4.53;;;;;;;;;;5048048;28;20032;-62
2021/06/17 03:17:06;;;;;;;7.60;5.20;;;;;;;;;;5047794;28;20068;-63
2021/06/17 03:19:33;;;;;;;9.15;4.85;;;;;;;;;;5047089;28;20063;-63
2021/06/17 03:22:06;;;;;;;7.10;4.72;;;;;;;;;;5048381;28;20607;-64
2021/06/17 03:24:36;;;;;;;6.28;4.68;;;;;;;;;;5047282;28;20073;-63
2021/06/17 03:27:02;;;;;;;9.93;4.70;;;;;;;;;;5048759;28;20108;-63
2021/06/17 03:29:36;;;;;;;6.07;4.75;;;;;;;;;;5046898;28;20116;-64
2021/06/17 03:32:03;;;;;;;5.72;4.57;;;;;;;;;;5047290;28;20086;-64
2021/06/17 03:34:29;;;;;;;8.18;4.75;;;;;;;;;;5047514;28;20048;-65
2021/06/17 03:36:55;;;;;;;9.00;4.75;;;;;;;;;;5046788;28;20140;-63
2021/06/17 03:39:21;;;;;;;6.88;5.20;;;;;;;;;;5047870;28;20017;-63
2021/06/17 03:41:47;;;;;;;7.10;5.53;;;;;;;;;;5047361;28;20063;-64
2021/06/17 03:44:13;;;;;;;9.85;5.45;;;;;;;;;;5052994;28;20452;-63
2021/06/17 03:46:38;;;;;;;9.07;4.60;;;;;;;;;;5047511;28;20025;-63
2021/06/17 03:49:04;;;;;;;8.63;4.90;;;;;;;;;;5047639;28;20025;-63
2021/06/17 03:51:29;;;;;;;6.45;4.53;;;;;;;;;;5045983;28;20026;-63
2021/06/17 03:53:55;;;;;;;6.65;5.10;;;;;;;;;;5047544;28;20023;-64
2021/06/17 03:56:20;;;;;;;6.10;4.75;;;;;;;;;;5047192;28;20045;-63
2021/06/17 03:58:49;;;;;;;7.55;5.18;;;;;;;;;;5047709;28;20425;-64
2021/06/17 04:01:14;;;;;;;9.95;5.85;;;;;;;;;;5047456;28;20026;-64
2021/06/17 04:03:40;;;;;;;6.15;4.57;;;;;;;;;;5047875;28;20116;-63
2021/06/17 04:06:08;;;;;;;16.58;5.65;;;;;;;;;;5047979;28;20036;-64
2021/06/17 04:08:37;;;;;;;48.38;8.18;;;;;;;;;;5046950;28;20029;-63
2021/06/17 04:11:02;;;;;;;35.83;7.97;;;;;;;;;;5046355;28;20036;-64
2021/06/17 04:13:29;;;;;;;12.27;5.63;;;;;;;;;;5049827;28;20111;-64
2021/06/17 04:15:55;;;;;;;7.18;5.40;;;;;;;;;;5046989;28;20113;-63
2021/06/17 04:18:23;;;;;;;9.73;5.50;;;;;;;;;;5079407;28;20036;-64
2021/06/17 04:20:49;;;;;;;8.68;5.55;;;;;;;;;;5046655;28;20029;-63
2021/06/17 04:23:16;;;;;;;10.05;4.78;;;;;;;;;;5046337;28;20362;-64
2021/06/17 04:25:41;;;;;;;6.25;4.72;;;;;;;;;;5046360;28;20035;-64
2021/06/17 04:28:07;;;;;;;10.65;5.07;;;;;;;;;;5047371;28;20025;-64
2021/06/17 04:30:32;;;;;;;9.70;4.65;;;;;;;;;;5047136;28;20043;-64
2021/06/17 04:32:59;;;;;;;7.32;4.70;;;;;;;;;;5049019;28;20039;-64
2021/06/17 04:35:25;;;;;;;8.35;4.65;;;;;;;;;;5051289;28;20032;-63
2021/06/17 04:37:51;;;;;;;10.85;4.40;;;;;;;;;;5051739;28;20055;-64
2021/06/17 04:40:17;;;;;;;10.85;3.85;;;;;;;;;;5051677;28;20071;-64
2021/06/17 04:42:42;;;;;;;9.18;4.50;;;;;;;;;;5051539;28;20076;-63
2021/06/17 04:45:08;;;;;;;6.07;3.97;;;;;;;;;;5051094;28;20447;-63
2021/06/17 04:47:36;;;;;;;6.50;4.60;;;;;;;;;;5051411;28;20079;-64
2021/06/17 04:50:02;;;;;;;6.75;4.07;;;;;;;;;;5051496;28;20483;-64
2021/06/17 04:52:39;;;;;;;6.97;4.00;;;;;;;;;;5051518;28;20025;-64
2021/06/17 04:55:05;;;;;;;7.40;4.18;;;;;;;;;;5045881;28;20025;-64
2021/06/17 04:57:30;;;;;;;5.68;3.88;;;;;;;;;;5050666;28;20444;-64
2021/06/17 04:59:55;;;;;;;5.82;3.90;;;;;;;;;;5050578;28;20027;-64
2021/06/17 05:02:21;;;;;;;5.20;3.80;;;;;;;;;;5051839;28;20095;-64
2021/06/17 05:04:46;;;;;;;5.60;3.58;;;;;;;;;;5051588;28;20263;-64
2021/06/17 05:12:23;;;;;;;5.15;3.55;;;;;;;;;;5051786;28;20143;-64
2021/06/17 05:14:48;;;;;;;5.00;3.47;;;;;;;;;;5049962;28;20048;-65
2021/06/17 05:17:13;;;;;;;4.53;3.40;;;;;;;;;;5051720;28;20087;-65
2021/06/17 05:19:38;;;;;;;4.17;3.10;;;;;;;;;;5051681;28;20252;-67
2021/06/17 05:22:04;;;;;;;7.70;3.60;;;;;;;;;;5047658;28;20037;-67
2021/06/17 05:24:29;;;;;;;8.52;3.40;;;;;;;;;;5049821;28;20120;-66
2021/06/17 05:26:54;;;;;;;6.65;3.22;;;;;;;;;;5050431;28;20045;-66
2021/06/17 05:29:20;;;;;;;5.90;3.75;;;;;;;;;;5051021;28;20021;-67
2021/06/17 05:31:45;;;;;;;3.40;2.73;;;;;;;;;;5049941;28;20041;-67
2021/06/17 05:34:10;;;;;;;7.30;3.40;;;;;;;;;;5050568;28;20075;-67
2021/06/17 05:36:35;;;;;;;10.33;3.33;;;;;;;;;;5051361;28;20036;-67
2021/06/17 05:39:01;;;;;;;4.20;3.40;;;;;;;;;;5051358;28;20272;-67
2021/06/17 05:41:26;;;;;;;5.90;3.37;;;;;;;;;;5051471;28;20392;-66
2021/06/17 05:43:51;;;;;;;6.07;3.47;;;;;;;;;;5052725;28;20768;-67
2021/06/17 05:46:16;;;;;;;7.33;3.33;;;;;;;;;;5051273;28;20047;-67
2021/06/17 05:48:42;;;;;;;4.47;3.13;;;;;;;;;;5050664;28;20028;-67
2021/06/17 05:51:07;;;;;;;4.45;2.88;;;;;;;;;;5050204;28;20107;-66
2021/06/17 05:53:32;;;;;;;5.13;3.40;;;;;;;;;;5051011;28;20033;-67
2021/06/17 05:55:58;;;;;;;4.32;3.20;;;;;;;;;;5050249;28;20083;-65
2021/06/17 05:58:23;;;;;;;5.20;3.43;;;;;;;;;;5050306;28;20044;-67
2021/06/17 06:00:48;;;;;;;5.50;3.43;;;;;;;;;;5050763;28;20271;-67
2021/06/17 06:03:13;;;;;;;4.80;3.28;;;;;;;;;;5049109;28;20710;-67
2021/06/17 06:05:39;;;;;;;3.85;3.00;;;;;;;;;;5050122;28;20475;-67
2021/06/17 06:08:08;;;;;;;4.15;2.90;;;;;;;;;;5050950;28;20021;-67
2021/06/17 06:10:33;;;;;;;;;;;;;;;;;;5051439;28;20396;-67
2021/06/17 06:12:58;;;;;;;7.30;2.88;;;;;;;;;;5059430;28;20352;-67
2021/06/17 06:15:24;;;;;;;4.68;3.10;;;;;;;;;;5037646;28;20021;-67
2021/06/17 06:17:49;;;;;;;5.63;3.10;;;;;;;;;;5050649;28;20265;-66
2021/06/17 06:20:15;;;;;;;8.67;3.37;;;;;;;;;;5050428;28;20025;-66
2021/06/17 06:22:41;;;;;;;4.55;3.08;;;;;;;;;;5050513;28;20300;-66
2021/06/17 06:25:07;;;;;;;7.95;3.08;;;;;;;;;;5050041;28;20044;-67
2021/06/17 06:27:32;;;;;;;9.07;3.67;;;;;;;;;;5049408;28;20056;-67
2021/06/17 06:30:02;;;;;;;8.43;3.45;;;;;;;;;;5049082;28;20440;-67
2021/06/17 06:32:27;;;;;;;8.25;3.40;;;;;;;;;;5049826;28;20017;-67
2021/06/17 06:34:52;;;;;;;5.40;3.17;;;;;;;;;;5048224;28;20056;-67
2021/06/17 06:37:18;;;;;;;8.63;3.70;;;;;;;;;;5049596;28;20443;-68
2021/06/17 06:39:43;;;;;;;8.83;3.47;;;;;;;;;;5049035;28;20361;-68
2021/06/17 06:42:08;;;;;;;4.70;3.23;;;;;;;;;;5050301;28;20341;-68
2021/06/17 06:44:33;;;;;;;5.22;2.88;;;;;;;;;;5049194;28;20325;-68
2021/06/17 06:46:59;;;;;;;4.53;2.77;;;;;;;;;;5047296;28;20112;-67
2021/06/17 06:49:25;;;;;;;5.80;2.95;;;;;;;;;;5049570;28;20032;-67
2021/06/17 06:51:50;;;;;;;5.35;2.90;;;;;;;;;;5047889;28;20021;-66
2021/06/17 06:54:18;;;;;;;5.97;3.17;;;;;;;;;;5033874;28;20473;-66
2021/06/17 06:56:43;;;;;;;5.03;2.80;;;;;;;;;;5048914;28;20052;-67
2021/06/17 06:59:09;;;;;;;5.63;2.85;;;;;;;;;;5050193;28;20368;-67
2021/06/17 07:01:36;;;;;;;4.27;3.30;;;;;;;;;;5049488;28;20021;-66
2021/06/17 07:04:01;;;;;;;8.48;3.78;;;;;;;;;;5049939;28;20104;-68
2021/06/17 07:06:27;;;;;;;5.97;3.40;;;;;;;;;;5044235;28;20651;-66
2021/06/17 07:08:52;;;;;;;7.65;3.28;;;;;;;;;;5049711;28;20305;-68
2021/06/17 07:11:17;;;;;;;6.20;3.37;;;;;;;;;;5049353;28;20298;-72
2021/06/17 07:13:43;;;;;;;6.83;3.50;;;;;;;;;;5048337;28;20051;-67
2021/06/17 07:16:08;;;;;;;4.05;2.90;;;;;;;;;;5048834;28;20292;-68
2021/06/17 07:18:33;;;;;;;6.47;3.60;;;;;;;;;;5048589;28;20021;-68
2021/06/17 07:20:59;;;;;;;4.80;3.00;;;;;;;;;;5049326;28;20279;-68
2021/06/17 07:23:27;;;;;;;5.05;3.00;;;;;;;;;;5048096;28;20013;-67
2021/06/17 07:25:53;;;;;;;7.05;3.55;;;;;;;;;;5049357;28;20522;-67
2021/06/17 07:28:18;;;;;;;4.75;3.22;;;;;;;;;;5048611;28;20101;-66
2021/06/17 07:30:43;;;;;;;6.33;3.30;;;;;;;;;;5048874;28;20021;-67
2021/06/17 07:33:08;;;;;;;3.88;2.90;;;;;;;;;;5047721;28;20313;-68
2021/06/17 07:35:34;;;;;;;6.53;3.53;;;;;;;;;;5048666;28;20021;-67
2021/06/17 07:37:59;;;;;;;5.83;3.00;;;;;;;;;;5048215;28;20384;-67
2021/06/17 07:40:24;;;;;;;5.57;3.20;;;;;;;;;;5046319;28;20771;-67
2021/06/17 07:42:49;;;;;;;6.53;3.67;;;;;;;;;;5049225;28;20028;-68
2021/06/17 07:45:14;;;;;;;6.77;3.53;;;;;;;;;;5048784;28;20464;-68
2021/06/17 07:47:40;;;;;;;6.28;3.90;;;;;;;;;;5045011;28;20299;-68
2021/06/17 07:50:06;;;;;;;6.40;3.50;;;;;;;;;;5047513;28;20028;-67
2021/06/17 07:52:31;;;;;;;11.10;4.13;;;;;;;;;;5047763;28;20028;-68
2021/06/17 07:54:57;;;;;;;5.50;3.28;;;;;;;;;;5048818;28;20013;-68
2021/06/17 07:57:22;;;;;;;4.90;3.20;;;;;;;;;;5048318;28;20051;-68
2021/06/17 07:59:47;;;;;;;9.17;3.10;;;;;;;;;;5049084;28;20020;-67
2021/06/17 08:02:12;;;;;;;7.50;3.50;;;;;;;;;;5047293;28;20325;-68
2021/06/17 08:04:38;;;;;;;5.72;3.55;;;;;;;;;;5048929;28;20348;-68
2021/06/17 08:07:03;;;;;;;5.97;3.80;;;;;;;;;;5047628;28;20013;-67
2021/06/17 08:09:28;;;;;;;6.47;3.78;;;;;;;;;;5048920;28;20021;-68
2021/06/17 08:11:53;;;;;;;4.87;3.57;;;;;;;;;;5048513;28;20021;-68
2021/06/17 08:14:26;;;;;;;6.33;3.87;;;;;;;;;;5048930;28;20259;-68
2021/06/17 08:16:52;;;;;;;6.78;4.00;;;;;;;;;;5048448;28;20349;-68
2021/06/17 08:19:18;;;;;;;8.48;3.90;;;;;;;;;;5048608;28;20052;-67
2021/06/17 08:21:44;;;;;;;6.22;3.63;;;;;;;;;;5034106;28;20067;-68
2021/06/17 08:24:09;;;;;;;7.97;3.50;;;;;;;;;;5048263;28;20028;-67
2021/06/17 08:26:35;;;;;;;5.28;3.38;;;;;;;;;;5048388;28;20419;-67
2021/06/17 08:29:01;;;;;;;7.07;3.80;;;;;;;;;;5048183;28;20020;-68
2021/06/17 08:31:28;;;;;;;4.93;3.67;;;;;;;;;;5047873;28;20071;-67
2021/06/17 08:33:53;;;;;;;6.22;3.47;;;;;;;;;;5048233;28;20060;-67
2021/06/17 08:36:18;;;;;;;5.22;3.60;;;;;;;;;;5048365;28;20037;-67
2021/06/17 08:38:45;;;;;;;8.80;3.97;;;;;;;;;;5048229;28;20104;-67
2021/06/17 08:41:11;;;;;;;6.57;4.10;;;;;;;;;;5047968;28;20263;-67
2021/06/17 08:43:36;;;;;;;5.13;3.22;;;;;;;;;;5052237;28;20100;-67
2021/06/17 08:46:02;;;;;;;5.30;3.83;;;;;;;;;;5048125;28;20437;-68
2021/06/17 08:48:27;;;;;;;6.63;3.88;;;;;;;;;;5047798;28;20275;-68
2021/06/17 08:50:56;;;;;;;7.03;4.05;;;;;;;;;;5048235;28;20024;-69
2021/06/17 08:53:21;;;;;;;5.85;3.90;;;;;;;;;;5048076;28;20061;-67
2021/06/17 08:55:47;;;;;;;26.27;4.50;;;;;;;;;;5048263;28;20521;-67
2021/06/17 08:58:12;;;;;;;5.15;3.45;;;;;;;;;;5047969;28;20374;-67
2021/06/17 09:00:38;;;;;;;6.47;4.13;;;;;;;;;;5048509;28;20021;-67
2021/06/17 09:03:05;;;;;;;7.22;3.40;;;;;;;;;;5048029;28;20275;-67
2021/06/17 09:05:31;;;;;;;4.55;3.30;;;;;;;;;;5046813;28;20521;-67
2021/06/17 09:07:57;;;;;;;5.43;3.60;;;;;;;;;;5048059;28;20017;-68
2021/06/17 09:10:23;;;;;;;4.63;3.40;;;;;;;;;;5047570;28;20406;-67
2021/06/17 09:12:50;;;;;;;6.40;3.50;;;;;;;;;;5048102;28;20492;-67
2021/06/17 09:15:28;;;;;;;5.55;3.70;;;;;;;;;;5047996;28;20025;-68
2021/06/17 09:18:22;;;;;;;5.00;3.35;;;;;;;;;;5048819;28;20624;-68
2021/06/17 09:20:49;;;;;;;7.32;3.50;;;;;;;;;;5042112;28;20033;-67
2021/06/17 09:23:18;;;;;;;5.20;3.72;;;;;;;;;;5050269;28;20491;-68
2021/06/17 09:26:09;;;;;;;11.50;3.50;;;;;;;;;;5051401;28;20129;-68
2021/06/17 09:29:12;;;;;;;5.20;3.35;;;;;;;;;;5049095;28;20020;-67
2021/06/17 09:31:40;;;;;;;5.60;3.70;;;;;;;;;;5051332;28;20059;-67
2021/06/17 09:34:06;;;;;;;8.05;3.58;;;;;;;;;;5051304;28;20045;-67
2021/06/17 09:36:32;;;;;;;6.57;3.80;;;;;;;;;;5051604;28;20430;-68
2021/06/17 09:39:03;;;;;;;5.68;3.35;;;;;;;;;;5051255;28;20017;-67
2021/06/17 09:41:30;;;;;;;4.38;2.95;;;;;;;;;;5050999;28;20044;-68
2021/06/17 09:43:55;;;;;;;5.57;3.08;;;;;;;;;;5051613;28;20028;-68
2021/06/17 09:46:21;;;;;;;5.70;3.38;;;;;;;;;;5051473;28;20032;-67
2021/06/17 09:48:50;;;;;;;5.30;3.63;;;;;;;;;;5051124;28;20021;-67
2021/06/17 09:51:21;;;;;;;5.55;3.60;;;;;;;;;;5051030;28;20036;-67
2021/06/17 09:53:46;;;;;;;5.53;3.42;;;;;;;;;;5049817;28;20068;-67
2021/06/17 09:56:15;;;;;;;8.07;3.63;;;;;;;;;;5050555;28;20524;-68
2021/06/17 09:58:42;;;;;;;5.70;3.80;;;;;;;;;;5051171;28;20673;-68
2021/06/17 10:01:13;;;;;;;4.55;3.72;;;;;;;;;;5049735;28;20040;-67
2021/06/17 10:03:40;;;;;;;6.75;3.45;;;;;;;;;;5049348;28;20083;-68
2021/06/17 10:06:17;;;;;;;6.78;3.85;;;;;;;;;;5050824;28;20017;-68
2021/06/17 10:08:43;;;;;;;6.25;3.45;;;;;;;;;;5050725;28;20037;-67
2021/06/17 10:11:09;;;;;;;5.00;3.08;;;;;;;;;;5050637;28;20112;-67
2021/06/17 10:13:34;;;;;;;5.13;3.00;;;;;;;;;;5051234;28;20188;-67
2021/06/17 10:16:00;;;;;;;5.40;2.85;;;;;;;;;;5050889;28;20079;-67
2021/06/17 10:18:25;;;;;;;6.53;3.00;;;;;;;;;;5050262;28;20024;-69
2021/06/17 10:20:50;;;;;;;3.95;2.58;;;;;;;;;;5050426;28;20021;-68
2021/06/17 10:23:16;;;;;;;2.90;2.30;;;;;;;;;;5050313;28;20052;-68
2021/06/17 10:25:43;;;;;;;4.38;2.85;;;;;;;;;;5049902;28;20790;-68
2021/06/17 10:28:08;;;;;;;5.15;3.05;;;;;;;;;;5043893;28;20032;-68
2021/06/17 10:30:42;;;;;;;6.40;3.28;;;;;;;;;;5049117;28;20380;-67
2021/06/17 10:33:24;;;;;;;5.18;2.92;;;;;;;;;;5043963;28;20056;-68
2021/06/17 10:35:49;;;;;;;9.25;3.58;;;;;;;;;;5047172;28;20419;-67
2021/06/17 10:38:15;;;;;;;7.63;3.05;;;;;;;;;;5050042;28;20059;-67
2021/06/17 10:40:43;;;;;;;4.57;3.03;;;;;;;;;;5050099;28;20025;-68
2021/06/17 10:43:19;;;;;;;5.07;2.80;;;;;;;;;;5055314;28;20064;-67
2021/06/17 10:45:45;;;;;;;4.38;2.92;;;;;;;;;;5049593;28;20032;-68
2021/06/17 10:48:12;;;;;;;6.05;2.95;;;;;;;;;;5050341;28;20017;-68
2021/06/17 10:50:43;;;;;;;6.13;2.90;;;;;;;;;;5050357;28;20098;-68
2021/06/17 10:53:16;;;;;;;7.18;2.90;;;;;;;;;;5049812;28;20116;-68
2021/06/17 10:55:54;;;;;;;8.38;2.95;;;;;;;;;;5049495;28;20021;-68
2021/06/17 10:58:37;;;;;;;3.63;2.85;;;;;;;;;;5049779;28;20426;-68
2021/06/17 11:01:20;;;;;;;5.75;2.90;;;;;;;;;;5049984;28;20039;-68
2021/06/17 11:03:45;;;;;;;4.88;2.53;;;;;;;;;;5050359;28;20021;-67
2021/06/17 11:06:10;;;;;;;3.63;2.60;;;;;;;;;;5049673;28;20054;-68
2021/06/17 11:08:35;;;;;;;6.30;2.70;;;;;;;;;;5049971;28;20025;-68
2021/06/17 11:11:08;;;;;;;6.30;2.87;;;;;;;;;;5049839;28;20075;-68
2021/06/17 11:13:48;;;;;;;6.85;2.70;;;;;;;;;;5046168;28;20734;-68
2021/06/17 11:16:13;;;;;;;3.38;2.45;;;;;;;;;;5049817;28;20033;-68
2021/06/17 11:21:25;;;;;;;4.10;2.25;;;;;;;;;;5049379;28;20255;-67
2021/06/17 11:23:55;;;;;;;3.65;2.58;;;;;;;;;;5048830;28;20111;-68
2021/06/17 11:26:39;;;;;;;2.53;2.00;;;;;;;;;;5049216;28;20025;-67
2021/06/17 11:29:05;;;;;;;3.10;2.00;;;;;;;;;;5049656;28;20095;-68
2021/06/17 11:31:40;;;;;;;2.53;1.90;;;;;;;;;;5049497;28;20096;-67
2021/06/17 11:34:06;;;;;;;2.67;1.70;;;;;;;;;;5049172;28;20048;-67
2021/06/17 11:36:31;;;;;;;3.22;1.80;;;;;;;;;;5048778;28;20489;-68
2021/06/17 11:39:01;;;;;;;2.72;1.90;;;;;;;;;;5049012;28;20034;-68
2021/06/17 11:41:26;;;;;;;2.67;2.00;;;;;;;;;;5048424;28;20021;-69
2021/06/17 11:44:00;;;;;;;5.55;2.30;;;;;;;;;;5055458;28;20029;-68
2021/06/17 11:46:29;;;;;;;13.55;2.50;;;;;;;;;;5042723;28;20075;-68
2021/06/17 11:48:59;;;;;;;4.35;2.30;;;;;;;;;;5048641;28;20024;-68
2021/06/17 11:51:25;;;;;;;5.22;2.15;;;;;;;;;;5048834;28;20024;-68
2021/06/17 11:53:51;;;;;;;3.60;2.20;;;;;;;;;;5049534;28;20388;-68
2021/06/17 11:56:23;;;;;;;3.75;2.35;;;;;;;;;;5042284;28;20028;-68
2021/06/17 11:58:48;;;;;;;2.83;2.20;;;;;;;;;;5048357;28;20048;-67
2021/06/17 12:01:13;;;;;;;2.30;1.83;;;;;;;;;;5049074;28;20421;-67
2021/06/17 12:03:38;;;;;;;3.75;2.42;;;;;;;;;;5048526;28;20025;-68
2021/06/17 12:06:05;;;;;;;4.10;1.97;;;;;;;;;;5049139;28;20047;-67
2021/06/17 12:08:30;;;;;;;4.50;2.20;;;;;;;;;;5048082;28;20350;-68
2021/06/17 12:10:59;;;;;;;4.13;2.03;;;;;;;;;;5048685;28;20116;-68
2021/06/17 12:13:24;;;;;;;5.32;2.60;;;;;;;;;;5049908;28;20017;-68
2021/06/17 12:15:53;;;;;;;5.65;2.20;;;;;;;;;;5047223;28;20497;-67
2021/06/17 12:18:19;;;;;;;3.38;2.10;;;;;;;;;;5048712;28;20029;-67
2021/06/17 12:20:50;;;;;;;3.83;2.13;;;;;;;;;;5040615;28;20057;-66
2021/06/17 12:23:19;;;;;;;3.10;2.20;;;;;;;;;;5047007;28;20025;-67
2021/06/17 12:25:46;;;;;;;3.70;1.98;;;;;;;;;;5048119;28;20547;-66
2021/06/17 12:28:13;;;;;;;5.07;2.63;;;;;;;;;;5048143;28;20095;-68
2021/06/17 12:30:45;;;;;;;3.10;1.90;;;;;;;;;;5047631;28;20036;-68
2021/06/17 12:33:12;;;;;;;3.17;2.20;;;;;;;;;;5047282;28;20203;-68
2021/06/17 12:36:05;;;;;;;7.10;2.63;;;;;;;;;;5048098;28;20522;-68
2021/06/17 12:38:32;;;;;;;4.07;2.30;;;;;;;;;;5038507;28;20068;-67
2021/06/17 12:41:12;;;;;;;6.25;2.58;;;;;;;;;;5041975;28;20074;-67
2021/06/17 12:43:42;;;;;;;4.50;2.35;;;;;;;;;;5044183;28;20044;-67
2021/06/17 12:46:08;;;;;;;3.58;2.53;;;;;;;;;;5044617;28;20045;-67
2021/06/17 12:54:05;;;;;;;3.90;2.25;;;;;;;;;;5046564;28;20100;-67
2021/06/17 12:56:32;;;;;;;4.68;2.00;;;;;;;;;;5042361;28;20040;-67
2021/06/17 12:58:57;;;;;;;2.55;2.35;;;;;;;;;;5048388;28;20033;-68
2021/06/17 13:01:23;;;;;;;6.33;2.47;;;;;;;;;;5029849;28;20087;-68
2021/06/17 13:03:50;;;;;;;3.55;2.13;;;;;;;;;;5048564;28;20021;-67
2021/06/17 13:06:32;;;;;;;5.28;1.90;;;;;;;;;;5049294;28;20486;-67
2021/06/17 13:08:57;;;;;;;3.08;1.92;;;;;;;;;;5049195;28;20040;-66
2021/06/17 13:11:26;;;;;;;4.57;2.67;;;;;;;;;;5048994;28;20048;-67
2021/06/17 13:14:02;;;;;;;2.97;2.28;;;;;;;;;;5049232;28;20074;-68
2021/06/17 13:16:27;;;;;;;3.33;1.90;;;;;;;;;;5047744;28;20033;-69
2021/06/17 13:18:52;;;;;;;3.20;2.17;;;;;;;;;;5051650;28;20032;-67
2021/06/17 13:21:17;;;;;;;5.50;2.30;;;;;;;;;;5051594;28;20479;-67
2021/06/17 13:23:43;;;;;;;2.80;2.22;;;;;;;;;;5049505;28;20291;-67
2021/06/17 13:26:09;;;;;;;6.32;2.60;;;;;;;;;;5051663;28;20099;-67
2021/06/17 13:28:43;;;;;;;3.15;2.08;;;;;;;;;;5051496;28;20021;-67
2021/06/17 13:31:17;;;;;;;4.18;2.10;;;;;;;;;;5051429;28;20032;-67
2021/06/17 13:33:43;;;;;;;5.05;2.25;;;;;;;;;;5051058;28;20103;-67
2021/06/17 13:36:10;;;;;;;4.25;2.00;;;;;;;;;;5051626;28;20070;-68
2021/06/17 13:38:35;;;;;;;4.00;2.10;;;;;;;;;;5051627;28;20434;-67
2021/06/17 13:41:00;;;;;;;4.05;2.20;;;;;;;;;;5051700;28;20041;-68
2021/06/17 13:43:26;;;;;;;4.03;2.20;;;;;;;;;;5052190;28;20021;-67
2021/06/17 13:45:51;;;;;;;2.92;2.08;;;;;;;;;;5051171;28;20096;-68
2021/06/17 13:48:16;;;;;;;3.22;2.10;;;;;;;;;;5050889;28;20024;-68
2021/06/17 13:50:42;;;;;;;4.10;2.10;;;;;;;;;;5051521;28;20046;-67
2021/06/17 13:53:08;;;;;;;2.80;2.10;;;;;;;;;;5051053;28;20097;-67
2021/06/17 13:55:37;;;;;;;3.55;2.42;;;;;;;;;;5051091;28;20375;-67
2021/06/17 13:58:06;;;;;;;;;;;;;;;;;;5051271;28;20039;-67
2021/06/17 14:00:31;;;;;;;3.10;2.30;;;;;;;;;;5051078;28;19905;-67
2021/06/17 14:02:57;;;;;;;5.43;2.00;;;;;;;;;;5051243;28;20024;-68
2021/06/17 14:05:22;;;;;;;5.25;2.38;;;;;;;;;;5050695;28;20480;-67
2021/06/17 14:07:48;;;;;;;5.90;2.42;;;;;;;;;;5050425;28;20025;-65
2021/06/17 14:10:15;;;;;;;3.42;2.17;;;;;;;;;;5050760;28;20091;-66
2021/06/17 14:12:40;;;;;;;6.45;2.35;;;;;;;;;;5052943;28;20043;-65
2021/06/17 14:15:06;;;;;;;5.93;2.38;;;;;;;;;;5053587;28;20435;-65
2021/06/17 14:17:31;;;;;;;2.60;1.98;;;;;;;;;;5049933;28;20068;-65
2021/06/17 14:19:57;;;;;;;3.72;1.98;;;;;;;;;;5050277;28;20021;-65
2021/06/17 14:22:22;;;;;;;4.75;2.10;;;;;;;;;;5050342;28;20387;-64
2021/06/17 14:24:47;;;;;;;5.33;2.43;;;;;;;;;;5050552;28;20010;-65
2021/06/17 14:27:13;;;;;;;3.95;1.92;;;;;;;;;;5050435;28;20100;-65
2021/06/17 14:29:38;;;;;;;3.33;1.80;;;;;;;;;;5050248;28;20484;-65
2021/06/17 14:32:03;;;;;;;5.73;2.13;;;;;;;;;;5050136;28;20276;-65
2021/06/17 14:34:29;;;;;;;7.13;2.05;;;;;;;;;;5050027;28;20271;-65
2021/06/17 14:36:54;;;;;;;3.97;2.10;;;;;;;;;;5050355;28;20044;-65
2021/06/17 14:39:20;;;;;;;4.25;2.17;;;;;;;;;;5050117;28;20086;-64
2021/06/17 14:41:45;;;;;;;9.75;2.20;;;;;;;;;;5050316;28;20027;-65
2021/06/17 14:44:16;;;;;;;4.10;2.30;;;;;;;;;;5050344;28;20021;-66
2021/06/17 14:46:42;;;;;;;4.45;1.80;;;;;;;;;;5049849;28;20267;-66
2021/06/17 14:49:07;;;;;;;6.05;1.75;;;;;;;;;;5049273;28;20369;-66
2021/06/17 14:51:32;;;;;;;2.83;2.00;;;;;;;;;;5049794;28;20417;-65
2021/06/17 14:53:57;;;;;;;3.17;1.97;;;;;;;;;;5048997;28;20329;-65
2021/06/17 14:56:23;;;;;;;3.42;2.25;;;;;;;;;;5049612;28;20295;-66